Kearney, NE (68845)

02:33 AM CDT del 31 Ottobre 2014 (GMT -0500)
Regency | Change Station
CLOSE
Current Station
Stazione meteo personale
Location: Kearney, NE
Altitudine: 2224 ft
Stazioni meteo nelle vicinanze

Alt. 2224 ft 40.72 °N, 99.08 °W | Updated 3 seconds ago

Parzialmente nuvoloso
Parzialmente nuvoloso
32.5 °F
Sembra 24 °F
N
10.6
Vento Variabile Vento da NNE
Gusts 18.4 mph

Oggi
Massima -- | Minima -- °F
--% Possibilità di precip.
Ieri
Massima -- | Minima -- °F
Precip. -- in
8:06 AM 6:34 PM
Primo quarto, 52% visible
Pressione 30.47 in
Visibilità 10.0 miglia
Nuvole Coperto 1300 ft
Raffreddamento del vento 24 °F
Punto di rugiada 30 °F
Umidità 92%
Piovosità 0.00 in
Spessore del manto nevoso Non disponibile.
Raggi UV 0 fuori da 12
Polline 2.10 fuori da 12
Qualità dell'aria Non disponibile.
Flu Activity Non disponibile.
METAR KEAR 310715Z 34013G19KT 10SM OVC013 02/M02 A3047 RMK AO1

More Conditions Fewer Conditions

Pressione 30.47 in
Visibilità 10.0 miglia
Nuvole Coperto 1300 ft
Raffreddamento del vento 24 °F
Punto di rugiada 30 °F
Umidità 92%
Piovosità 0.00 in
Spessore del manto nevoso Non disponibile.
Raggi UV 0 fuori da 12
Polline 2.10 fuori da 12
Qualità dell'aria Non disponibile.
Flu Activity Non disponibile.
METAR KEAR 310715Z 34013G19KT 10SM OVC013 02/M02 A3047 RMK AO1

More Conditions Fewer Conditions

10-Day Weather Forecast

Almanac

Astronomia

Oct. 31, 2014 Alba Tramonto
Ora attuale
Crepuscolo civile
Crepuscolo nautico
Crepuscolo astronomico
Luna
Estensione della luce visibile
Lunghezza del giorno
Tomorrow will be .
, % of the Moon is Illuminated

Gli estremi di oggi

State Highs State Lows

Community

WunderPhotos

Upload Photos

1,766,573 foto caricate!

WunderBlogs® & News

Nearby

Qualità dell'aria

  Qualità dell'aria Indice AQ Inquinante
Not available.

Profondità neve

Stazione Profondità Altitudine

Attività sismica

Città  Distanza Mag. Data & Ora
Minimo Magnitudo Mostrato è 2.5.

Temperature delle acque costiere

Località Temperatura

Stazioni meteo nelle vicinanze